createdAt,value
2023-04-18T00:01:11.289Z,11.18
2023-04-18T00:03:40.603Z,10.85
2023-04-18T00:06:07.250Z,10.75
2023-04-18T00:08:34.056Z,11.73
2023-04-18T00:11:00.388Z,11.43
2023-04-18T00:13:28.506Z,10.88
2023-04-18T00:15:55.170Z,11.05
2023-04-18T00:18:22.175Z,12.07
2023-04-18T00:20:48.594Z,11.55
2023-04-18T00:23:15.129Z,11.77
2023-04-18T00:25:41.515Z,12.50
2023-04-18T00:28:08.144Z,12.23
2023-04-18T00:30:34.629Z,13.35
2023-04-18T00:33:01.659Z,12.20
2023-04-18T00:35:28.395Z,12.95
2023-04-18T00:37:55.081Z,14.45
2023-04-18T00:40:21.787Z,13.85
2023-04-18T00:42:48.489Z,14.77
2023-04-18T00:45:14.998Z,14.60
2023-04-18T00:47:41.698Z,15.13
2023-04-18T00:50:09.962Z,15.05
2023-04-18T00:52:36.894Z,14.82
2023-04-18T00:55:06.629Z,16.17
2023-04-18T00:57:33.212Z,15.27
2023-04-18T01:00:01.372Z,16.05
2023-04-18T01:02:31.135Z,17.70
2023-04-18T01:04:58.627Z,17.23
2023-04-18T01:07:26.504Z,19.65
2023-04-18T01:09:53.905Z,18.70
2023-04-18T01:12:20.397Z,18.45
2023-04-18T01:14:46.757Z,18.92
2023-04-18T01:17:13.329Z,20.42
2023-04-18T01:19:40.443Z,19.35
2023-04-18T01:22:07.121Z,19.42
2023-04-18T01:24:33.786Z,20.35
2023-04-18T01:27:02.060Z,20.10
2023-04-18T01:29:29.001Z,20.83
2023-04-18T01:31:55.625Z,19.00
2023-04-18T01:34:22.020Z,21.00
2023-04-18T01:36:48.487Z,20.15
2023-04-18T01:39:15.091Z,19.02
2023-04-18T01:41:42.113Z,20.85
2023-04-18T01:44:08.569Z,20.92
2023-04-18T01:46:36.059Z,20.95
2023-04-18T01:49:02.908Z,20.05
2023-04-18T01:51:29.269Z,20.67
2023-04-18T01:53:55.705Z,20.10
2023-04-18T01:56:22.294Z,20.42
2023-04-18T01:58:48.784Z,21.55
2023-04-18T02:01:15.699Z,21.23
2023-04-18T02:03:42.284Z,21.50
2023-04-18T02:06:08.756Z,21.33
2023-04-18T02:08:35.899Z,21.88
2023-04-18T02:11:02.882Z,22.50
2023-04-18T02:13:29.555Z,22.08
2023-04-18T02:15:55.896Z,21.25
2023-04-18T02:18:24.690Z,22.00
2023-04-18T02:20:52.078Z,21.73
2023-04-18T02:23:19.071Z,22.50
2023-04-18T02:25:45.691Z,19.88
2023-04-18T02:28:12.046Z,21.20
2023-04-18T02:30:38.472Z,21.15
2023-04-18T02:33:04.970Z,21.33
2023-04-18T02:35:31.707Z,21.13
2023-04-18T02:37:58.114Z,20.42
2023-04-18T02:40:24.854Z,21.10
2023-04-18T02:42:51.221Z,21.17
2023-04-18T02:45:17.710Z,23.13
2023-04-18T02:47:54.489Z,21.00
2023-04-18T02:50:22.240Z,18.77
2023-04-18T02:52:48.929Z,19.77
2023-04-18T02:55:15.280Z,20.75
2023-04-18T02:57:41.754Z,19.23
2023-04-18T03:00:08.904Z,21.70
2023-04-18T03:02:35.776Z,20.65
2023-04-18T03:05:02.280Z,19.75
2023-04-18T03:07:28.928Z,20.63
2023-04-18T03:09:55.373Z,20.48
2023-04-18T03:12:21.805Z,19.33
2023-04-18T03:14:48.282Z,20.63
2023-04-18T03:17:14.770Z,19.48
2023-04-18T03:19:41.127Z,20.05
2023-04-18T03:22:07.808Z,19.98
2023-04-18T03:24:34.152Z,18.33
2023-04-18T03:27:00.791Z,19.02
2023-04-18T03:29:27.470Z,18.33
2023-04-18T03:31:53.932Z,19.13
2023-04-18T03:34:20.477Z,19.65
2023-04-18T03:36:48.190Z,18.98
2023-04-18T03:39:14.822Z,19.77
2023-04-18T03:41:41.502Z,19.15
2023-04-18T03:44:07.935Z,20.10
2023-04-18T03:46:35.172Z,19.73
2023-04-18T03:49:01.767Z,19.48
2023-04-18T03:51:33.792Z,19.33
2023-04-18T03:54:00.217Z,20.98
2023-04-18T03:56:26.930Z,19.23
2023-04-18T03:58:53.345Z,19.60
2023-04-18T04:01:19.824Z,19.83
2023-04-18T04:03:46.754Z,20.83
2023-04-18T04:06:13.596Z,20.42
2023-04-18T04:08:40.239Z,21.08
2023-04-18T04:11:06.746Z,20.75
2023-04-18T04:13:33.218Z,21.92
2023-04-18T04:15:59.662Z,22.65
2023-04-18T04:18:30.916Z,23.05
2023-04-18T04:20:59.177Z,20.77
2023-04-18T04:23:26.702Z,20.60
2023-04-18T04:25:53.706Z,20.38
2023-04-18T04:28:23.929Z,22.05
2023-04-18T04:30:53.791Z,22.08
2023-04-18T04:33:21.044Z,20.77
2023-04-18T04:35:48.020Z,21.98
2023-04-18T04:38:15.362Z,20.10
2023-04-18T04:40:42.468Z,21.25
2023-04-18T04:43:12.845Z,21.42
2023-04-18T04:45:42.178Z,21.48
2023-04-18T04:48:09.605Z,20.90
2023-04-18T04:50:38.171Z,21.17
2023-04-18T04:53:06.256Z,20.10
2023-04-18T04:55:33.123Z,20.48
2023-04-18T04:57:59.644Z,21.65
2023-04-18T05:00:26.168Z,21.67
2023-04-18T05:02:55.406Z,20.75
2023-04-18T05:05:22.348Z,21.33
2023-04-18T05:07:48.708Z,20.00
2023-04-18T05:10:15.148Z,19.30
2023-04-18T05:12:41.615Z,19.20
2023-04-18T05:15:08.215Z,20.35
2023-04-18T05:17:34.765Z,19.42
2023-04-18T05:20:01.241Z,20.45
2023-04-18T05:22:27.959Z,19.52
2023-04-18T05:24:54.316Z,17.98
2023-04-18T05:27:21.571Z,20.30
2023-04-18T05:29:49.312Z,18.48
2023-04-18T05:32:16.322Z,18.50
2023-04-18T05:34:43.279Z,16.90
2023-04-18T05:37:09.705Z,18.65
2023-04-18T05:39:36.608Z,17.83
2023-04-18T05:42:03.463Z,18.75
2023-04-18T05:44:29.931Z,17.92
2023-04-18T05:46:56.398Z,17.45
2023-04-18T05:49:23.089Z,17.23
2023-04-18T05:51:49.988Z,16.58
2023-04-18T05:54:16.949Z,16.10
2023-04-18T05:56:43.390Z,18.52
2023-04-18T05:59:09.726Z,16.67
2023-04-18T06:01:36.426Z,17.67
2023-04-18T06:04:02.957Z,16.83
2023-04-18T06:06:29.488Z,17.58
2023-04-18T06:08:55.873Z,16.95
2023-04-18T06:11:22.911Z,16.60
2023-04-18T06:13:49.440Z,15.95
2023-04-18T06:16:15.997Z,16.05
2023-04-18T06:18:42.467Z,16.10
2023-04-18T06:21:09.249Z,16.00
2023-04-18T06:23:35.611Z,16.75
2023-04-18T06:26:02.342Z,16.48
2023-04-18T06:28:28.731Z,16.75
2023-04-18T06:30:55.154Z,16.25
2023-04-18T06:33:21.516Z,16.80
2023-04-18T06:35:48.115Z,16.73
2023-04-18T06:38:14.780Z,16.73
2023-04-18T06:40:41.492Z,17.92
2023-04-18T06:43:08.158Z,17.33
2023-04-18T06:45:35.399Z,17.23
2023-04-18T06:48:05.867Z,18.38
2023-04-18T06:50:32.428Z,17.75
2023-04-18T06:52:58.976Z,18.40
2023-04-18T06:55:25.445Z,18.70
2023-04-18T06:57:51.928Z,18.27
2023-04-18T07:00:18.490Z,17.90
2023-04-18T07:02:45.143Z,18.23
2023-04-18T07:05:11.681Z,17.20
2023-04-18T07:07:38.168Z,18.92
2023-04-18T07:10:06.212Z,17.38
2023-04-18T07:12:32.612Z,23.45
2023-04-18T07:14:59.061Z,16.42
2023-04-18T07:17:25.838Z,16.40
2023-04-18T07:19:52.384Z,17.77
2023-04-18T07:22:18.730Z,17.48
2023-04-18T07:24:45.191Z,16.58
2023-04-18T07:27:11.599Z,17.58
2023-04-18T07:29:38.063Z,17.15
2023-04-18T07:32:06.116Z,18.10
2023-04-18T07:34:36.137Z,19.52
2023-04-18T07:37:02.618Z,16.33
2023-04-18T07:39:29.006Z,17.20
2023-04-18T07:41:55.418Z,17.13
2023-04-18T07:44:21.895Z,17.88
2023-04-18T07:46:48.442Z,18.98
2023-04-18T07:49:15.147Z,17.02
2023-04-18T07:51:41.690Z,15.75
2023-04-18T07:54:08.426Z,16.42
2023-04-18T07:56:34.822Z,15.45
2023-04-18T07:59:01.681Z,16.48
2023-04-18T08:01:28.102Z,14.95
2023-04-18T08:03:56.584Z,16.42
2023-04-18T08:06:23.254Z,16.67
2023-04-18T08:08:49.749Z,16.42
2023-04-18T08:11:16.557Z,16.58
2023-04-18T08:13:43.274Z,15.57
2023-04-18T08:16:09.737Z,17.30
2023-04-18T08:18:36.438Z,17.25
2023-04-18T08:21:02.812Z,16.92
2023-04-18T08:23:29.164Z,15.68
2023-04-18T08:25:55.678Z,16.90
2023-04-18T08:28:22.331Z,14.93
2023-04-18T08:30:49.288Z,15.27
2023-04-18T08:33:16.169Z,15.85
2023-04-18T08:35:42.975Z,15.63
2023-04-18T08:38:09.831Z,16.05
2023-04-18T08:40:37.257Z,14.43
2023-04-18T08:43:09.340Z,15.95
2023-04-18T08:45:36.888Z,13.88
2023-04-18T08:48:03.909Z,14.30
2023-04-18T08:50:30.533Z,14.75
2023-04-18T08:52:57.020Z,15.98
2023-04-18T08:55:23.473Z,15.05
2023-04-18T08:57:54.043Z,14.98
2023-04-18T09:00:20.619Z,16.15
2023-04-18T09:02:47.455Z,14.77
2023-04-18T09:05:16.733Z,15.75
2023-04-18T09:07:43.227Z,15.35
2023-04-18T09:10:10.172Z,16.33
2023-04-18T09:12:52.088Z,16.23
2023-04-18T09:17:54.037Z,14.73
2023-04-18T09:20:36.055Z,16.25
2023-04-18T09:25:41.591Z,14.15
2023-04-18T09:28:29.035Z,15.77
2023-04-18T09:30:57.299Z,16.67
2023-04-18T09:33:33.930Z,15.77
2023-04-18T09:36:19.209Z,15.88
2023-04-18T09:38:46.750Z,18.48
2023-04-18T09:41:15.883Z,16.48
2023-04-18T09:43:43.126Z,17.08
2023-04-18T09:46:09.684Z,17.30
2023-04-18T09:48:36.649Z,18.48
2023-04-18T09:51:22.018Z,19.00
2023-04-18T09:53:50.494Z,18.42
2023-04-18T09:56:25.920Z,20.23
2023-04-18T09:59:01.518Z,20.45
2023-04-18T10:01:29.807Z,19.08
2023-04-18T10:03:57.714Z,20.65
2023-04-18T10:06:27.368Z,20.85
2023-04-18T10:08:55.331Z,18.88
2023-04-18T10:11:23.616Z,21.35
2023-04-18T10:13:53.408Z,20.10
2023-04-18T10:16:20.729Z,20.33
2023-04-18T10:18:49.746Z,21.05
2023-04-18T10:21:16.648Z,20.25
2023-04-18T10:23:43.113Z,20.48
2023-04-18T10:26:10.963Z,19.02
2023-04-18T10:28:53.690Z,19.52
2023-04-18T10:31:28.247Z,19.17
2023-04-18T10:36:28.902Z,19.17
2023-04-18T10:39:00.544Z,20.33
2023-04-18T10:41:28.909Z,19.23
2023-04-18T10:44:08.672Z,19.60
2023-04-18T10:46:39.388Z,19.27
2023-04-18T10:49:18.144Z,20.50
2023-04-18T10:51:49.536Z,20.48
2023-04-18T10:54:28.560Z,20.95
2023-04-18T10:56:56.847Z,19.70
2023-04-18T10:59:25.129Z,21.33
2023-04-18T11:01:57.492Z,21.83
2023-04-18T11:04:25.406Z,20.23
2023-04-18T11:06:55.853Z,21.45
2023-04-18T11:09:22.591Z,20.67
2023-04-18T11:12:08.916Z,21.00
2023-04-18T11:14:45.464Z,20.88
2023-04-18T11:17:23.929Z,18.52
2023-04-18T11:20:01.382Z,20.92
2023-04-18T11:22:27.901Z,21.05
2023-04-18T11:24:59.145Z,22.65
2023-04-18T11:27:28.677Z,21.77
2023-04-18T11:29:56.393Z,21.08
2023-04-18T11:32:24.433Z,20.63
2023-04-18T11:34:53.215Z,21.45
2023-04-18T11:37:20.112Z,20.35
2023-04-18T11:39:46.726Z,21.05
2023-04-18T11:42:13.538Z,22.60
2023-04-18T11:44:40.224Z,27.45
2023-04-18T11:47:26.564Z,21.50
2023-04-18T11:50:07.149Z,21.60
2023-04-18T11:52:35.086Z,21.50
2023-04-18T11:55:21.387Z,20.13
2023-04-18T11:58:01.416Z,19.67
2023-04-18T12:00:34.008Z,19.13
2023-04-18T12:03:01.985Z,18.60
2023-04-18T12:05:30.962Z,18.83
2023-04-18T12:08:13.270Z,19.02
2023-04-18T12:10:57.515Z,21.13
2023-04-18T12:13:26.726Z,20.08
2023-04-18T12:15:54.153Z,19.40
2023-04-18T12:18:21.243Z,19.17
2023-04-18T12:20:54.434Z,24.92
2023-04-18T12:23:38.900Z,19.83
2023-04-18T12:26:23.659Z,20.10
2023-04-18T12:28:51.203Z,19.10
2023-04-18T12:31:18.045Z,20.17
2023-04-18T12:33:44.612Z,19.50
2023-04-18T12:36:11.115Z,20.83
2023-04-18T12:38:37.551Z,20.23
2023-04-18T12:41:04.267Z,19.90
2023-04-18T12:43:30.916Z,19.85
2023-04-18T12:45:57.695Z,19.02
2023-04-18T12:48:24.052Z,19.85
2023-04-18T12:50:50.480Z,18.88
2023-04-18T12:53:17.179Z,19.83
2023-04-18T12:55:43.599Z,25.50
2023-04-18T12:58:09.954Z,16.42
2023-04-18T13:00:36.370Z,18.95
2023-04-18T13:03:03.013Z,17.73
2023-04-18T13:05:33.145Z,18.02
2023-04-18T13:08:12.744Z,17.23
2023-04-18T13:10:42.393Z,17.73
2023-04-18T13:13:08.762Z,17.83
2023-04-18T13:15:35.219Z,19.17
2023-04-18T13:18:05.097Z,15.50
2023-04-18T13:20:32.251Z,15.93
2023-04-18T13:22:58.618Z,16.52
2023-04-18T13:25:26.380Z,17.52
2023-04-18T13:27:52.773Z,24.05
2023-04-18T13:30:19.503Z,18.52
2023-04-18T13:32:46.270Z,16.05
2023-04-18T13:35:12.691Z,15.57
2023-04-18T13:37:39.435Z,15.82
2023-04-18T13:40:06.742Z,16.38
2023-04-18T13:42:33.914Z,15.80
2023-04-18T13:45:00.461Z,16.98
2023-04-18T13:47:27.154Z,17.38
2023-04-18T13:49:53.604Z,16.90
2023-04-18T13:52:20.241Z,16.45
2023-04-18T13:54:47.027Z,16.27
2023-04-18T13:57:14.572Z,15.05
2023-04-18T13:59:41.183Z,16.95
2023-04-18T14:02:10.786Z,15.98
2023-04-18T14:04:37.510Z,16.85
2023-04-18T14:07:06.172Z,15.75
2023-04-18T14:09:32.651Z,17.15
2023-04-18T14:11:59.124Z,16.77
2023-04-18T14:14:25.792Z,17.08
2023-04-18T14:16:53.521Z,16.70
2023-04-18T14:19:19.932Z,16.42
2023-04-18T14:21:47.598Z,16.35
2023-04-18T14:24:14.278Z,16.38
2023-04-18T14:26:40.749Z,15.18
2023-04-18T14:29:07.275Z,15.75
2023-04-18T14:31:33.687Z,16.10
2023-04-18T14:34:00.104Z,16.15
2023-04-18T14:36:27.185Z,16.55
2023-04-18T14:38:54.616Z,16.30
2023-04-18T14:41:21.079Z,15.93
2023-04-18T14:43:47.422Z,15.18
2023-04-18T14:46:18.331Z,16.05
2023-04-18T14:48:46.347Z,15.00
2023-04-18T14:51:12.984Z,14.77
2023-04-18T14:53:39.378Z,14.98
2023-04-18T14:56:06.329Z,14.38
2023-04-18T14:58:32.999Z,14.52
2023-04-18T15:00:59.416Z,14.45
2023-04-18T15:03:26.232Z,13.32
2023-04-18T15:05:53.201Z,12.73
2023-04-18T15:08:19.698Z,12.98
2023-04-18T15:10:47.473Z,13.63
2023-04-18T15:13:13.907Z,13.65
2023-04-18T15:15:40.379Z,14.00
2023-04-18T15:18:08.258Z,14.05
2023-04-18T15:20:36.044Z,13.98
2023-04-18T15:23:02.838Z,14.00
2023-04-18T15:25:30.364Z,14.30
2023-04-18T15:27:58.097Z,13.48
2023-04-18T15:30:25.203Z,14.65
2023-04-18T15:32:52.172Z,14.68
2023-04-18T15:35:18.792Z,15.63
2023-04-18T15:37:45.169Z,19.52
2023-04-18T15:40:16.030Z,14.95
2023-04-18T15:42:43.561Z,14.43
2023-04-18T15:45:10.832Z,16.00
2023-04-18T15:47:37.397Z,16.20
2023-04-18T15:50:04.378Z,15.23
2023-04-18T15:52:30.908Z,16.70
2023-04-18T15:54:57.806Z,15.93
2023-04-18T15:57:24.234Z,15.90
2023-04-18T15:59:50.647Z,16.40
2023-04-18T16:02:17.060Z,17.05
2023-04-18T16:04:43.548Z,17.73
2023-04-18T16:07:12.038Z,16.45
2023-04-18T16:09:38.541Z,17.70
2023-04-18T16:12:05.802Z,16.45
2023-04-18T16:14:33.380Z,18.35
2023-04-18T16:16:59.886Z,18.08
2023-04-18T16:19:26.547Z,17.45
2023-04-18T16:21:52.901Z,18.15
2023-04-18T16:24:19.298Z,16.83
2023-04-18T16:26:45.713Z,18.23
2023-04-18T16:29:12.377Z,18.75
2023-04-18T16:31:38.803Z,18.08
2023-04-18T16:34:05.313Z,17.83
2023-04-18T16:36:34.146Z,17.50
2023-04-18T16:39:00.635Z,17.90
2023-04-18T16:41:27.256Z,18.17
2023-04-18T16:43:53.949Z,17.58
2023-04-18T16:46:20.499Z,18.20
2023-04-18T16:48:47.020Z,18.05
2023-04-18T16:51:13.406Z,18.17
2023-04-18T16:53:39.775Z,18.30
2023-04-18T16:56:07.870Z,18.13
2023-04-18T16:58:34.336Z,18.27
2023-04-18T17:01:04.052Z,17.50
2023-04-18T17:03:30.648Z,17.88
2023-04-18T17:05:57.218Z,17.23
2023-04-18T17:08:25.753Z,18.35
2023-04-18T17:10:52.758Z,18.65
2023-04-18T17:13:19.198Z,17.67
2023-04-18T17:15:45.885Z,15.98
2023-04-18T17:18:12.430Z,17.65
2023-04-18T17:20:38.969Z,24.92
2023-04-18T17:23:05.350Z,18.15
2023-04-18T17:25:31.828Z,17.10
2023-04-18T17:27:58.361Z,17.08
2023-04-18T17:30:24.796Z,16.77
2023-04-18T17:32:51.255Z,18.15
2023-04-18T17:35:17.883Z,18.23
2023-04-18T17:37:44.324Z,17.77
2023-04-18T17:40:11.670Z,16.77
2023-04-18T17:42:38.234Z,17.98
2023-04-18T17:45:07.483Z,18.05
2023-04-18T17:47:34.541Z,17.52
2023-04-18T17:50:00.967Z,18.00
2023-04-18T17:52:28.490Z,17.02
2023-04-18T17:54:55.620Z,17.95
2023-04-18T17:57:22.927Z,18.20
2023-04-18T17:59:49.757Z,17.63
2023-04-18T18:02:16.511Z,18.40
2023-04-18T18:04:42.963Z,18.98
2023-04-18T18:07:09.370Z,16.65
2023-04-18T18:09:35.801Z,18.25
2023-04-18T18:12:02.581Z,18.10
2023-04-18T18:14:28.933Z,17.55
2023-04-18T18:16:55.943Z,18.23
2023-04-18T18:19:22.433Z,18.38
2023-04-18T18:21:48.813Z,18.52
2023-04-18T18:24:15.227Z,18.75
2023-04-18T18:26:41.733Z,19.27
2023-04-18T18:29:11.162Z,19.00
2023-04-18T18:31:38.558Z,24.48
2023-04-18T18:34:05.689Z,18.55
2023-04-18T18:36:32.173Z,18.10
2023-04-18T18:38:58.603Z,19.15
2023-04-18T18:41:24.990Z,18.15
2023-04-18T18:43:51.585Z,18.90
2023-04-18T18:46:18.227Z,19.20
2023-04-18T18:48:44.648Z,19.73
2023-04-18T18:51:11.547Z,19.02
2023-04-18T18:53:40.149Z,18.20
2023-04-18T18:56:08.544Z,19.70
2023-04-18T18:58:35.561Z,19.95
2023-04-18T19:01:03.243Z,19.10
2023-04-18T19:03:29.891Z,19.15
2023-04-18T19:05:56.651Z,19.38
2023-04-18T19:08:23.108Z,19.63
2023-04-18T19:10:50.519Z,18.77
2023-04-18T19:13:18.891Z,18.95
2023-04-18T19:15:45.383Z,18.65
2023-04-18T19:18:12.428Z,18.45
2023-04-18T19:20:40.353Z,19.80
2023-04-18T19:23:06.793Z,19.35
2023-04-18T19:25:33.211Z,19.67
2023-04-18T19:27:59.560Z,19.33
2023-04-18T19:30:26.278Z,18.90
2023-04-18T19:32:52.757Z,19.33
2023-04-18T19:35:19.226Z,18.60
2023-04-18T19:37:45.734Z,18.30
2023-04-18T19:40:12.373Z,18.83
2023-04-18T19:42:38.821Z,17.70
2023-04-18T19:45:05.923Z,18.25
2023-04-18T19:47:33.849Z,18.48
2023-04-18T19:50:01.098Z,20.02
2023-04-18T19:52:27.548Z,17.73
2023-04-18T19:54:55.051Z,18.08
2023-04-18T19:57:21.929Z,18.80
2023-04-18T19:59:48.287Z,18.77
2023-04-18T20:02:14.972Z,17.52
2023-04-18T20:04:42.138Z,18.08
2023-04-18T20:07:09.010Z,18.63
2023-04-18T20:09:35.378Z,18.60
2023-04-18T20:12:02.578Z,18.08
2023-04-18T20:14:29.724Z,18.17
2023-04-18T20:16:56.647Z,17.33
2023-04-18T20:19:26.748Z,17.25
2023-04-18T20:21:53.197Z,17.02
2023-04-18T20:24:21.094Z,17.33
2023-04-18T20:26:47.806Z,17.30
2023-04-18T20:29:14.425Z,17.25
2023-04-18T20:31:42.371Z,17.15
2023-04-18T20:34:09.742Z,16.92
2023-04-18T20:36:41.379Z,16.48
2023-04-18T20:39:08.826Z,16.83
2023-04-18T20:41:36.814Z,16.80
2023-04-18T20:44:05.164Z,17.83
2023-04-18T20:46:32.280Z,17.30
2023-04-18T20:48:58.851Z,16.48
2023-04-18T20:51:26.741Z,17.38
2023-04-18T20:53:53.120Z,17.52
2023-04-18T20:56:20.119Z,17.30
2023-04-18T20:58:46.522Z,17.88
2023-04-18T21:01:12.945Z,16.50
2023-04-18T21:03:39.480Z,16.85
2023-04-18T21:06:06.073Z,17.35
2023-04-18T21:08:34.656Z,17.08
2023-04-18T21:11:01.316Z,16.75
2023-04-18T21:13:28.007Z,16.77
2023-04-18T21:15:56.962Z,17.25
2023-04-18T21:18:24.054Z,17.90
2023-04-18T21:20:52.798Z,17.38
2023-04-18T21:23:19.491Z,17.63
2023-04-18T21:25:45.960Z,16.75
2023-04-18T21:28:12.503Z,17.08
2023-04-18T21:30:38.876Z,15.98
2023-04-18T21:33:05.393Z,16.83
2023-04-18T21:35:31.832Z,17.50
2023-04-18T21:37:58.270Z,17.52
2023-04-18T21:40:26.670Z,18.08
2023-04-18T21:42:53.029Z,17.90
2023-04-18T21:45:19.431Z,17.60
2023-04-18T21:47:46.219Z,17.38
2023-04-18T21:50:12.954Z,17.90
2023-04-18T21:52:39.504Z,18.90
2023-04-18T21:55:06.146Z,17.00
2023-04-18T21:57:32.533Z,18.33
2023-04-18T21:59:58.911Z,18.00
2023-04-18T22:02:27.028Z,18.25
2023-04-18T22:04:53.789Z,17.02
2023-04-18T22:07:20.232Z,18.60
2023-04-18T22:09:46.645Z,18.65
2023-04-18T22:12:13.988Z,18.90
2023-04-18T22:14:41.889Z,19.63
2023-04-18T22:17:09.230Z,19.30
2023-04-18T22:19:35.687Z,18.67
2023-04-18T22:22:02.112Z,19.00
2023-04-18T22:24:28.536Z,17.70
2023-04-18T22:26:54.992Z,18.73
2023-04-18T22:29:21.664Z,17.90
2023-04-18T22:31:48.140Z,17.80
2023-04-18T22:34:14.801Z,18.23
2023-04-18T22:36:42.671Z,17.08
2023-04-18T22:39:09.109Z,17.13
2023-04-18T22:41:35.500Z,17.45
2023-04-18T22:44:01.842Z,17.63
2023-04-18T22:46:28.646Z,16.48
2023-04-18T22:48:55.163Z,17.05
2023-04-18T22:51:23.328Z,17.38
2023-04-18T22:53:49.954Z,16.02
2023-04-18T22:56:16.315Z,17.33
2023-04-18T22:58:42.704Z,17.45
2023-04-18T23:01:09.109Z,17.67
2023-04-18T23:03:35.776Z,17.23
2023-04-18T23:06:02.242Z,16.77
2023-04-18T23:08:28.642Z,16.52
2023-04-18T23:10:55.035Z,16.60
2023-04-18T23:13:21.526Z,16.20
2023-04-18T23:15:47.948Z,16.17
2023-04-18T23:18:14.551Z,15.43
2023-04-18T23:20:40.925Z,16.00
2023-04-18T23:23:07.308Z,15.75
2023-04-18T23:25:33.775Z,16.75
2023-04-18T23:28:00.249Z,15.75
2023-04-18T23:30:26.655Z,14.75
2023-04-18T23:32:53.101Z,15.00
2023-04-18T23:35:19.569Z,13.60
2023-04-18T23:37:46.049Z,13.98
2023-04-18T23:40:12.465Z,13.98
2023-04-18T23:42:38.864Z,13.57
2023-04-18T23:45:05.944Z,10.77
2023-04-18T23:47:32.525Z,11.70
2023-04-18T23:49:58.917Z,12.35
2023-04-18T23:52:25.397Z,13.20
2023-04-18T23:54:51.889Z,12.52
2023-04-18T23:57:18.262Z,11.68
2023-04-18T23:59:44.943Z,10.95
